sensor_id;sensor_type;location;lat;lon;timestamp;P1;durP1;ratioP1;P2;durP2;ratioP2
23636;SDS011;11995;50.842;4.456;2022-11-02T00:02:04;8.30;;;1.70;;
23636;SDS011;11995;50.842;4.456;2022-11-02T00:04:31;9.58;;;2.00;;
23636;SDS011;11995;50.842;4.456;2022-11-02T00:07:02;9.10;;;1.72;;
23636;SDS011;11995;50.842;4.456;2022-11-02T00:09:29;11.38;;;2.27;;
23636;SDS011;11995;50.842;4.456;2022-11-02T00:11:57;8.25;;;1.80;;
23636;SDS011;11995;50.842;4.456;2022-11-02T00:14:24;9.13;;;1.95;;
23636;SDS011;11995;50.842;4.456;2022-11-02T00:19:21;12.78;;;1.87;;
23636;SDS011;11995;50.842;4.456;2022-11-02T00:21:50;8.98;;;2.05;;
23636;SDS011;11995;50.842;4.456;2022-11-02T00:24:20;8.25;;;1.62;;
23636;SDS011;11995;50.842;4.456;2022-11-02T00:26:47;19.35;;;2.60;;
23636;SDS011;11995;50.842;4.456;2022-11-02T00:29:15;11.90;;;2.10;;
23636;SDS011;11995;50.842;4.456;2022-11-02T00:31:42;10.78;;;2.27;;
23636;SDS011;11995;50.842;4.456;2022-11-02T00:34:10;9.33;;;2.55;;
23636;SDS011;11995;50.842;4.456;2022-11-02T00:36:37;9.78;;;1.70;;
23636;SDS011;11995;50.842;4.456;2022-11-02T00:39:05;14.33;;;2.17;;
23636;SDS011;11995;50.842;4.456;2022-11-02T00:41:33;10.32;;;2.00;;
23636;SDS011;11995;50.842;4.456;2022-11-02T00:44:01;13.68;;;2.12;;
23636;SDS011;11995;50.842;4.456;2022-11-02T00:46:28;8.83;;;1.75;;
23636;SDS011;11995;50.842;4.456;2022-11-02T00:48:56;11.50;;;1.87;;
23636;SDS011;11995;50.842;4.456;2022-11-02T00:53:53;13.53;;;1.75;;
23636;SDS011;11995;50.842;4.456;2022-11-02T00:56:20;9.63;;;1.92;;
23636;SDS011;11995;50.842;4.456;2022-11-02T00:58:48;11.53;;;1.98;;
23636;SDS011;11995;50.842;4.456;2022-11-02T01:01:15;13.30;;;2.12;;
23636;SDS011;11995;50.842;4.456;2022-11-02T01:03:44;11.33;;;2.98;;
23636;SDS011;11995;50.842;4.456;2022-11-02T01:06:12;8.88;;;1.40;;
23636;SDS011;11995;50.842;4.456;2022-11-02T01:08:41;10.68;;;2.40;;
23636;SDS011;11995;50.842;4.456;2022-11-02T01:11:09;10.98;;;2.22;;
23636;SDS011;11995;50.842;4.456;2022-11-02T01:13:39;16.70;;;1.85;;
23636;SDS011;11995;50.842;4.456;2022-11-02T01:16:07;11.05;;;1.90;;
23636;SDS011;11995;50.842;4.456;2022-11-02T01:18:35;13.00;;;2.27;;
23636;SDS011;11995;50.842;4.456;2022-11-02T01:21:06;11.10;;;2.20;;
23636;SDS011;11995;50.842;4.456;2022-11-02T01:23:36;12.37;;;2.77;;
23636;SDS011;11995;50.842;4.456;2022-11-02T01:26:07;9.00;;;2.00;;
23636;SDS011;11995;50.842;4.456;2022-11-02T01:28:39;11.60;;;1.55;;
23636;SDS011;11995;50.842;4.456;2022-11-02T01:31:08;14.35;;;2.08;;
23636;SDS011;11995;50.842;4.456;2022-11-02T01:33:37;14.43;;;2.33;;
23636;SDS011;11995;50.842;4.456;2022-11-02T01:36:06;11.88;;;2.85;;
23636;SDS011;11995;50.842;4.456;2022-11-02T01:38:35;11.20;;;2.50;;
23636;SDS011;11995;50.842;4.456;2022-11-02T01:41:02;13.58;;;2.15;;
23636;SDS011;11995;50.842;4.456;2022-11-02T01:43:31;13.72;;;1.95;;
23636;SDS011;11995;50.842;4.456;2022-11-02T01:48:47;15.03;;;2.42;;
23636;SDS011;11995;50.842;4.456;2022-11-02T01:51:29;15.40;;;2.80;;
23636;SDS011;11995;50.842;4.456;2022-11-02T01:53:54;9.20;;;1.87;;
23636;SDS011;11995;50.842;4.456;2022-11-02T01:56:24;11.48;;;2.17;;
23636;SDS011;11995;50.842;4.456;2022-11-02T01:58:55;11.50;;;2.47;;
23636;SDS011;11995;50.842;4.456;2022-11-02T02:01:25;9.15;;;1.90;;
23636;SDS011;11995;50.842;4.456;2022-11-02T02:03:55;8.85;;;1.67;;
23636;SDS011;11995;50.842;4.456;2022-11-02T02:06:23;12.05;;;2.30;;
23636;SDS011;11995;50.842;4.456;2022-11-02T02:08:51;12.10;;;2.22;;
23636;SDS011;11995;50.842;4.456;2022-11-02T02:11:24;12.58;;;1.90;;
23636;SDS011;11995;50.842;4.456;2022-11-02T02:14:00;14.58;;;2.37;;
23636;SDS011;11995;50.842;4.456;2022-11-02T02:16:34;9.40;;;2.10;;
23636;SDS011;11995;50.842;4.456;2022-11-02T02:19:18;12.47;;;1.98;;
23636;SDS011;11995;50.842;4.456;2022-11-02T02:22:05;17.35;;;2.52;;
23636;SDS011;11995;50.842;4.456;2022-11-02T02:27:29;14.30;;;2.50;;
23636;SDS011;11995;50.842;4.456;2022-11-02T02:30:16;11.40;;;2.00;;
23636;SDS011;11995;50.842;4.456;2022-11-02T02:32:53;13.50;;;1.98;;
23636;SDS011;11995;50.842;4.456;2022-11-02T02:35:26;10.35;;;1.72;;
23636;SDS011;11995;50.842;4.456;2022-11-02T02:38:02;12.18;;;2.67;;
23636;SDS011;11995;50.842;4.456;2022-11-02T02:40:48;8.88;;;2.33;;
23636;SDS011;11995;50.842;4.456;2022-11-02T02:43:19;10.00;;;2.08;;
23636;SDS011;11995;50.842;4.456;2022-11-02T02:45:52;22.17;;;3.12;;
23636;SDS011;11995;50.842;4.456;2022-11-02T02:48:22;15.43;;;2.47;;
23636;SDS011;11995;50.842;4.456;2022-11-02T02:51:01;14.23;;;2.22;;
23636;SDS011;11995;50.842;4.456;2022-11-02T02:53:39;19.87;;;2.10;;
23636;SDS011;11995;50.842;4.456;2022-11-02T02:56:08;14.07;;;2.77;;
23636;SDS011;11995;50.842;4.456;2022-11-02T02:58:41;19.57;;;2.72;;
23636;SDS011;11995;50.842;4.456;2022-11-02T03:01:12;13.55;;;2.50;;
23636;SDS011;11995;50.842;4.456;2022-11-02T03:03:43;14.90;;;2.95;;
23636;SDS011;11995;50.842;4.456;2022-11-02T03:06:15;17.95;;;2.70;;
23636;SDS011;11995;50.842;4.456;2022-11-02T03:08:56;20.17;;;2.27;;
23636;SDS011;11995;50.842;4.456;2022-11-02T03:11:35;18.10;;;3.50;;
23636;SDS011;11995;50.842;4.456;2022-11-02T03:14:06;17.57;;;2.40;;
23636;SDS011;11995;50.842;4.456;2022-11-02T03:16:58;21.17;;;2.87;;
23636;SDS011;11995;50.842;4.456;2022-11-02T03:19:39;13.30;;;2.17;;
23636;SDS011;11995;50.842;4.456;2022-11-02T03:22:21;15.90;;;2.87;;
23636;SDS011;11995;50.842;4.456;2022-11-02T03:24:54;18.62;;;2.33;;
23636;SDS011;11995;50.842;4.456;2022-11-02T03:27:33;7.42;;;1.87;;
23636;SDS011;11995;50.842;4.456;2022-11-02T03:32:47;15.60;;;2.00;;
23636;SDS011;11995;50.842;4.456;2022-11-02T03:35:16;16.60;;;2.80;;
23636;SDS011;11995;50.842;4.456;2022-11-02T03:37:51;13.58;;;2.58;;
23636;SDS011;11995;50.842;4.456;2022-11-02T03:40:32;21.17;;;3.37;;
23636;SDS011;11995;50.842;4.456;2022-11-02T03:43:03;14.40;;;2.37;;
23636;SDS011;11995;50.842;4.456;2022-11-02T03:45:33;14.90;;;2.30;;
23636;SDS011;11995;50.842;4.456;2022-11-02T03:48:05;15.43;;;2.40;;
23636;SDS011;11995;50.842;4.456;2022-11-02T03:50:35;15.05;;;2.33;;
23636;SDS011;11995;50.842;4.456;2022-11-02T03:53:08;13.65;;;2.00;;
23636;SDS011;11995;50.842;4.456;2022-11-02T03:55:40;14.30;;;2.90;;
23636;SDS011;11995;50.842;4.456;2022-11-02T03:58:11;23.40;;;2.70;;
23636;SDS011;11995;50.842;4.456;2022-11-02T04:01:24;15.72;;;2.50;;
23636;SDS011;11995;50.842;4.456;2022-11-02T04:03:18;18.40;;;2.20;;
23636;SDS011;11995;50.842;4.456;2022-11-02T04:05:48;21.05;;;2.40;;
23636;SDS011;11995;50.842;4.456;2022-11-02T04:08:20;15.45;;;2.77;;
23636;SDS011;11995;50.842;4.456;2022-11-02T04:10:49;18.02;;;2.62;;
23636;SDS011;11995;50.842;4.456;2022-11-02T04:13:36;17.20;;;2.52;;
23636;SDS011;11995;50.842;4.456;2022-11-02T04:16:22;20.37;;;2.55;;
23636;SDS011;11995;50.842;4.456;2022-11-02T04:18:49;12.80;;;2.20;;
23636;SDS011;11995;50.842;4.456;2022-11-02T04:21:35;19.85;;;3.08;;
23636;SDS011;11995;50.842;4.456;2022-11-02T04:24:03;11.38;;;2.52;;
23636;SDS011;11995;50.842;4.456;2022-11-02T04:26:32;13.55;;;2.55;;
23636;SDS011;11995;50.842;4.456;2022-11-02T04:29:01;11.85;;;2.83;;
23636;SDS011;11995;50.842;4.456;2022-11-02T04:31:29;10.98;;;2.15;;
23636;SDS011;11995;50.842;4.456;2022-11-02T04:33:57;15.40;;;2.77;;
23636;SDS011;11995;50.842;4.456;2022-11-02T04:36:25;15.72;;;2.15;;
23636;SDS011;11995;50.842;4.456;2022-11-02T04:38:54;17.12;;;2.60;;
23636;SDS011;11995;50.842;4.456;2022-11-02T04:41:22;14.87;;;2.70;;
23636;SDS011;11995;50.842;4.456;2022-11-02T04:44:13;14.65;;;2.50;;
23636;SDS011;11995;50.842;4.456;2022-11-02T04:46:43;16.45;;;3.40;;
23636;SDS011;11995;50.842;4.456;2022-11-02T04:49:10;21.95;;;2.70;;
23636;SDS011;11995;50.842;4.456;2022-11-02T04:51:39;19.27;;;2.77;;
23636;SDS011;11995;50.842;4.456;2022-11-02T04:54:07;13.15;;;2.50;;
23636;SDS011;11995;50.842;4.456;2022-11-02T04:56:35;22.60;;;3.05;;
23636;SDS011;11995;50.842;4.456;2022-11-02T04:59:03;12.13;;;2.25;;
23636;SDS011;11995;50.842;4.456;2022-11-02T05:01:30;13.70;;;2.27;;
23636;SDS011;11995;50.842;4.456;2022-11-02T05:03:58;26.50;;;3.08;;
23636;SDS011;11995;50.842;4.456;2022-11-02T05:06:25;16.87;;;2.27;;
23636;SDS011;11995;50.842;4.456;2022-11-02T05:08:53;16.00;;;2.22;;
23636;SDS011;11995;50.842;4.456;2022-11-02T05:11:23;23.03;;;3.37;;
23636;SDS011;11995;50.842;4.456;2022-11-02T05:16:16;14.58;;;2.95;;
23636;SDS011;11995;50.842;4.456;2022-11-02T05:18:46;16.70;;;2.70;;
23636;SDS011;11995;50.842;4.456;2022-11-02T05:21:14;15.70;;;2.37;;
23636;SDS011;11995;50.842;4.456;2022-11-02T05:23:41;15.53;;;3.42;;
23636;SDS011;11995;50.842;4.456;2022-11-02T05:26:09;15.58;;;2.77;;
23636;SDS011;11995;50.842;4.456;2022-11-02T05:28:39;23.75;;;3.17;;
23636;SDS011;11995;50.842;4.456;2022-11-02T05:31:08;15.20;;;2.42;;
23636;SDS011;11995;50.842;4.456;2022-11-02T05:33:35;25.37;;;2.83;;
23636;SDS011;11995;50.842;4.456;2022-11-02T05:36:04;15.70;;;2.67;;
23636;SDS011;11995;50.842;4.456;2022-11-02T05:38:33;19.32;;;2.58;;
23636;SDS011;11995;50.842;4.456;2022-11-02T05:41:02;21.40;;;3.45;;
23636;SDS011;11995;50.842;4.456;2022-11-02T05:43:29;21.73;;;3.37;;
23636;SDS011;11995;50.842;4.456;2022-11-02T05:45:58;20.15;;;2.52;;
23636;SDS011;11995;50.842;4.456;2022-11-02T05:48:27;23.67;;;3.08;;
23636;SDS011;11995;50.842;4.456;2022-11-02T05:50:58;19.80;;;2.67;;
23636;SDS011;11995;50.842;4.456;2022-11-02T05:53:27;17.32;;;3.87;;
23636;SDS011;11995;50.842;4.456;2022-11-02T05:55:59;23.45;;;3.33;;
23636;SDS011;11995;50.842;4.456;2022-11-02T05:58:27;23.50;;;3.42;;
23636;SDS011;11995;50.842;4.456;2022-11-02T06:00:58;12.23;;;2.58;;
23636;SDS011;11995;50.842;4.456;2022-11-02T06:03:27;22.48;;;3.45;;
23636;SDS011;11995;50.842;4.456;2022-11-02T06:06:01;17.33;;;3.43;;
23636;SDS011;11995;50.842;4.456;2022-11-02T06:08:31;23.98;;;2.75;;
23636;SDS011;11995;50.842;4.456;2022-11-02T06:13:36;17.20;;;3.42;;
23636;SDS011;11995;50.842;4.456;2022-11-02T06:16:04;22.00;;;2.95;;
23636;SDS011;11995;50.842;4.456;2022-11-02T06:18:36;23.00;;;4.08;;
23636;SDS011;11995;50.842;4.456;2022-11-02T06:21:04;37.90;;;3.75;;
23636;SDS011;11995;50.842;4.456;2022-11-02T06:23:34;20.00;;;2.80;;
23636;SDS011;11995;50.842;4.456;2022-11-02T06:26:02;24.12;;;3.12;;
23636;SDS011;11995;50.842;4.456;2022-11-02T06:28:30;24.10;;;3.98;;
23636;SDS011;11995;50.842;4.456;2022-11-02T06:30:57;17.48;;;2.87;;
23636;SDS011;11995;50.842;4.456;2022-11-02T06:33:25;25.35;;;2.95;;
23636;SDS011;11995;50.842;4.456;2022-11-02T06:35:54;22.27;;;3.35;;
23636;SDS011;11995;50.842;4.456;2022-11-02T06:38:22;21.67;;;4.20;;
23636;SDS011;11995;50.842;4.456;2022-11-02T06:40:54;28.75;;;3.65;;
23636;SDS011;11995;50.842;4.456;2022-11-02T06:43:23;22.15;;;3.95;;
23636;SDS011;11995;50.842;4.456;2022-11-02T06:45:54;18.92;;;3.17;;
23636;SDS011;11995;50.842;4.456;2022-11-02T06:48:24;31.77;;;3.55;;
23636;SDS011;11995;50.842;4.456;2022-11-02T06:50:52;33.05;;;3.87;;
23636;SDS011;11995;50.842;4.456;2022-11-02T06:53:20;20.20;;;3.22;;
23636;SDS011;11995;50.842;4.456;2022-11-02T06:55:52;27.13;;;3.25;;
23636;SDS011;11995;50.842;4.456;2022-11-02T06:58:17;27.60;;;4.25;;
23636;SDS011;11995;50.842;4.456;2022-11-02T07:00:47;23.20;;;3.35;;
23636;SDS011;11995;50.842;4.456;2022-11-02T07:03:14;28.02;;;3.80;;
23636;SDS011;11995;50.842;4.456;2022-11-02T07:05:42;31.00;;;3.67;;
23636;SDS011;11995;50.842;4.456;2022-11-02T07:08:15;23.95;;;3.50;;
23636;SDS011;11995;50.842;4.456;2022-11-02T07:10:43;23.47;;;3.80;;
23636;SDS011;11995;50.842;4.456;2022-11-02T07:13:11;17.82;;;3.80;;
23636;SDS011;11995;50.842;4.456;2022-11-02T07:15:41;27.52;;;3.80;;
23636;SDS011;11995;50.842;4.456;2022-11-02T07:18:09;21.97;;;3.22;;
23636;SDS011;11995;50.842;4.456;2022-11-02T07:20:38;18.30;;;3.58;;
23636;SDS011;11995;50.842;4.456;2022-11-02T07:23:05;28.42;;;3.75;;
23636;SDS011;11995;50.842;4.456;2022-11-02T07:25:33;29.87;;;3.83;;
23636;SDS011;11995;50.842;4.456;2022-11-02T07:28:01;21.27;;;2.85;;
23636;SDS011;11995;50.842;4.456;2022-11-02T07:30:30;26.95;;;3.50;;
23636;SDS011;11995;50.842;4.456;2022-11-02T07:32:59;20.30;;;3.17;;
23636;SDS011;11995;50.842;4.456;2022-11-02T07:35:27;27.60;;;3.63;;
23636;SDS011;11995;50.842;4.456;2022-11-02T07:37:59;29.65;;;4.40;;
23636;SDS011;11995;50.842;4.456;2022-11-02T07:40:25;21.85;;;3.10;;
23636;SDS011;11995;50.842;4.456;2022-11-02T07:42:53;27.45;;;3.72;;
23636;SDS011;11995;50.842;4.456;2022-11-02T07:45:21;22.80;;;2.98;;
23636;SDS011;11995;50.842;4.456;2022-11-02T07:47:49;25.45;;;3.80;;
23636;SDS011;11995;50.842;4.456;2022-11-02T07:50:18;21.30;;;2.87;;
23636;SDS011;11995;50.842;4.456;2022-11-02T07:52:55;30.70;;;4.75;;
23636;SDS011;11995;50.842;4.456;2022-11-02T07:55:21;31.20;;;3.80;;
23636;SDS011;11995;50.842;4.456;2022-11-02T07:57:54;25.48;;;4.22;;
23636;SDS011;11995;50.842;4.456;2022-11-02T08:00:25;18.25;;;2.80;;
23636;SDS011;11995;50.842;4.456;2022-11-02T08:02:54;26.37;;;4.17;;
23636;SDS011;11995;50.842;4.456;2022-11-02T08:05:24;25.60;;;3.45;;
23636;SDS011;11995;50.842;4.456;2022-11-02T08:07:59;28.23;;;4.00;;
23636;SDS011;11995;50.842;4.456;2022-11-02T08:10:28;24.32;;;4.28;;
23636;SDS011;11995;50.842;4.456;2022-11-02T08:12:57;29.95;;;3.12;;
23636;SDS011;11995;50.842;4.456;2022-11-02T08:15:25;30.32;;;4.20;;
23636;SDS011;11995;50.842;4.456;2022-11-02T08:18:12;21.05;;;3.52;;
23636;SDS011;11995;50.842;4.456;2022-11-02T08:20:44;35.08;;;4.25;;
23636;SDS011;11995;50.842;4.456;2022-11-02T08:23:12;26.95;;;4.75;;
23636;SDS011;11995;50.842;4.456;2022-11-02T08:28:11;28.02;;;4.70;;
23636;SDS011;11995;50.842;4.456;2022-11-02T08:30:41;18.90;;;3.10;;
23636;SDS011;11995;50.842;4.456;2022-11-02T08:33:10;25.25;;;4.00;;
23636;SDS011;11995;50.842;4.456;2022-11-02T08:35:40;24.18;;;2.87;;
23636;SDS011;11995;50.842;4.456;2022-11-02T08:40:36;28.17;;;3.62;;
23636;SDS011;11995;50.842;4.456;2022-11-02T08:43:05;24.72;;;4.75;;
23636;SDS011;11995;50.842;4.456;2022-11-02T08:45:34;23.73;;;3.42;;
23636;SDS011;11995;50.842;4.456;2022-11-02T08:48:03;26.85;;;3.40;;
23636;SDS011;11995;50.842;4.456;2022-11-02T08:50:32;31.00;;;4.00;;
23636;SDS011;11995;50.842;4.456;2022-11-02T08:53:02;24.18;;;3.90;;
23636;SDS011;11995;50.842;4.456;2022-11-02T08:55:30;28.75;;;3.20;;
23636;SDS011;11995;50.842;4.456;2022-11-02T08:57:58;24.43;;;3.58;;
23636;SDS011;11995;50.842;4.456;2022-11-02T09:00:27;23.15;;;3.90;;
23636;SDS011;11995;50.842;4.456;2022-11-02T09:03:06;23.77;;;3.52;;
23636;SDS011;11995;50.842;4.456;2022-11-02T09:05:40;24.60;;;4.40;;
23636;SDS011;11995;50.842;4.456;2022-11-02T09:08:12;26.10;;;3.67;;
23636;SDS011;11995;50.842;4.456;2022-11-02T09:10:41;28.45;;;3.90;;
23636;SDS011;11995;50.842;4.456;2022-11-02T09:13:10;17.85;;;2.92;;
23636;SDS011;11995;50.842;4.456;2022-11-02T09:15:39;25.92;;;4.37;;
23636;SDS011;11995;50.842;4.456;2022-11-02T09:18:08;27.65;;;4.47;;
23636;SDS011;11995;50.842;4.456;2022-11-02T09:20:36;16.73;;;3.22;;
23636;SDS011;11995;50.842;4.456;2022-11-02T09:23:03;23.95;;;3.25;;
23636;SDS011;11995;50.842;4.456;2022-11-02T09:25:31;28.35;;;4.42;;
23636;SDS011;11995;50.842;4.456;2022-11-02T09:27:58;27.27;;;4.42;;
23636;SDS011;11995;50.842;4.456;2022-11-02T09:30:26;30.23;;;4.47;;
23636;SDS011;11995;50.842;4.456;2022-11-02T09:32:56;27.52;;;3.98;;
23636;SDS011;11995;50.842;4.456;2022-11-02T09:35:30;20.88;;;3.83;;
23636;SDS011;11995;50.842;4.456;2022-11-02T09:37:58;21.70;;;3.45;;
23636;SDS011;11995;50.842;4.456;2022-11-02T09:40:27;28.57;;;4.20;;
23636;SDS011;11995;50.842;4.456;2022-11-02T09:42:59;22.55;;;4.00;;
23636;SDS011;11995;50.842;4.456;2022-11-02T09:45:34;28.32;;;4.03;;
23636;SDS011;11995;50.842;4.456;2022-11-02T09:48:05;27.98;;;4.17;;
23636;SDS011;11995;50.842;4.456;2022-11-02T09:50:58;29.72;;;4.40;;
23636;SDS011;11995;50.842;4.456;2022-11-02T09:53:08;19.77;;;4.28;;
23636;SDS011;11995;50.842;4.456;2022-11-02T09:55:40;30.30;;;4.00;;
23636;SDS011;11995;50.842;4.456;2022-11-02T09:58:12;25.48;;;3.98;;
23636;SDS011;11995;50.842;4.456;2022-11-02T10:00:42;26.00;;;3.10;;
23636;SDS011;11995;50.842;4.456;2022-11-02T10:03:19;17.40;;;3.27;;
23636;SDS011;11995;50.842;4.456;2022-11-02T10:06:08;27.02;;;3.70;;
23636;SDS011;11995;50.842;4.456;2022-11-02T10:11:31;25.23;;;3.10;;
23636;SDS011;11995;50.842;4.456;2022-11-02T10:14:29;33.08;;;4.20;;
23636;SDS011;11995;50.842;4.456;2022-11-02T10:17:09;23.02;;;3.75;;
23636;SDS011;11995;50.842;4.456;2022-11-02T10:19:33;22.70;;;3.33;;
23636;SDS011;11995;50.842;4.456;2022-11-02T10:22:04;23.73;;;3.05;;
23636;SDS011;11995;50.842;4.456;2022-11-02T10:24:34;24.60;;;4.17;;
23636;SDS011;11995;50.842;4.456;2022-11-02T10:27:05;17.62;;;3.22;;
23636;SDS011;11995;50.842;4.456;2022-11-02T10:32:18;14.53;;;3.35;;
23636;SDS011;11995;50.842;4.456;2022-11-02T10:34:46;24.55;;;3.77;;
23636;SDS011;11995;50.842;4.456;2022-11-02T10:40:19;29.75;;;3.17;;
23636;SDS011;11995;50.842;4.456;2022-11-02T10:42:57;19.15;;;2.95;;
23636;SDS011;11995;50.842;4.456;2022-11-02T10:45:47;18.50;;;3.27;;
23636;SDS011;11995;50.842;4.456;2022-11-02T10:51:29;21.62;;;3.27;;
23636;SDS011;11995;50.842;4.456;2022-11-02T10:53:59;22.93;;;3.52;;
23636;SDS011;11995;50.842;4.456;2022-11-02T10:56:30;19.73;;;3.35;;
23636;SDS011;11995;50.842;4.456;2022-11-02T10:59:00;21.20;;;4.58;;
23636;SDS011;11995;50.842;4.456;2022-11-02T11:01:30;18.10;;;3.40;;
23636;SDS011;11995;50.842;4.456;2022-11-02T11:03:59;25.37;;;4.92;;
23636;SDS011;11995;50.842;4.456;2022-11-02T11:09:05;21.07;;;3.87;;
23636;SDS011;11995;50.842;4.456;2022-11-02T11:14:45;18.90;;;3.22;;
23636;SDS011;11995;50.842;4.456;2022-11-02T11:17:16;26.05;;;3.62;;
23636;SDS011;11995;50.842;4.456;2022-11-02T11:19:53;24.72;;;3.87;;
23636;SDS011;11995;50.842;4.456;2022-11-02T11:27:44;18.60;;;3.12;;
23636;SDS011;11995;50.842;4.456;2022-11-02T11:30:24;23.85;;;3.22;;
23636;SDS011;11995;50.842;4.456;2022-11-02T11:32:56;21.25;;;3.00;;
23636;SDS011;11995;50.842;4.456;2022-11-02T11:35:36;17.20;;;2.62;;
23636;SDS011;11995;50.842;4.456;2022-11-02T11:38:08;21.35;;;3.05;;
23636;SDS011;11995;50.842;4.456;2022-11-02T11:40:38;19.07;;;3.27;;
23636;SDS011;11995;50.842;4.456;2022-11-02T11:43:09;21.02;;;3.05;;
23636;SDS011;11995;50.842;4.456;2022-11-02T11:45:39;22.07;;;3.08;;
23636;SDS011;11995;50.842;4.456;2022-11-02T11:48:26;21.73;;;3.17;;
23636;SDS011;11995;50.842;4.456;2022-11-02T11:50:50;15.85;;;3.40;;
23636;SDS011;11995;50.842;4.456;2022-11-02T11:53:19;19.42;;;3.45;;
23636;SDS011;11995;50.842;4.456;2022-11-02T11:55:50;20.27;;;3.08;;
23636;SDS011;11995;50.842;4.456;2022-11-02T11:58:22;20.37;;;3.35;;
23636;SDS011;11995;50.842;4.456;2022-11-02T12:04:21;18.62;;;2.85;;
23636;SDS011;11995;50.842;4.456;2022-11-02T12:09:22;13.70;;;2.85;;
23636;SDS011;11995;50.842;4.456;2022-11-02T12:12:08;20.12;;;3.25;;
23636;SDS011;11995;50.842;4.456;2022-11-02T12:17:58;15.83;;;2.92;;
23636;SDS011;11995;50.842;4.456;2022-11-02T12:20:43;16.95;;;3.25;;
23636;SDS011;11995;50.842;4.456;2022-11-02T12:25:55;19.25;;;2.60;;
23636;SDS011;11995;50.842;4.456;2022-11-02T12:28:36;14.50;;;3.30;;
23636;SDS011;11995;50.842;4.456;2022-11-02T12:34:03;14.58;;;3.40;;
23636;SDS011;11995;50.842;4.456;2022-11-02T12:39:28;10.90;;;2.15;;
23636;SDS011;11995;50.842;4.456;2022-11-02T12:42:04;12.98;;;2.15;;
23636;SDS011;11995;50.842;4.456;2022-11-02T12:45:02;16.42;;;2.87;;
23636;SDS011;11995;50.842;4.456;2022-11-02T12:47:54;16.97;;;3.47;;
23636;SDS011;11995;50.842;4.456;2022-11-02T12:50:31;20.32;;;3.90;;
23636;SDS011;11995;50.842;4.456;2022-11-02T12:56:08;16.95;;;2.72;;
23636;SDS011;11995;50.842;4.456;2022-11-02T12:58:40;14.00;;;3.05;;
23636;SDS011;11995;50.842;4.456;2022-11-02T13:01:27;16.87;;;3.37;;
23636;SDS011;11995;50.842;4.456;2022-11-02T13:04:12;15.23;;;2.60;;
23636;SDS011;11995;50.842;4.456;2022-11-02T13:06:43;24.27;;;3.87;;
23636;SDS011;11995;50.842;4.456;2022-11-02T13:12:13;12.07;;;2.27;;
23636;SDS011;11995;50.842;4.456;2022-11-02T13:14:49;14.60;;;2.42;;
23636;SDS011;11995;50.842;4.456;2022-11-02T13:17:17;16.55;;;2.75;;
23636;SDS011;11995;50.842;4.456;2022-11-02T13:19:54;13.35;;;3.05;;
23636;SDS011;11995;50.842;4.456;2022-11-02T13:22:25;19.35;;;2.62;;
23636;SDS011;11995;50.842;4.456;2022-11-02T13:24:56;14.80;;;2.98;;
23636;SDS011;11995;50.842;4.456;2022-11-02T13:27:28;12.47;;;2.15;;
23636;SDS011;11995;50.842;4.456;2022-11-02T13:30:00;12.20;;;2.77;;
23636;SDS011;11995;50.842;4.456;2022-11-02T13:32:34;17.10;;;2.85;;
23636;SDS011;11995;50.842;4.456;2022-11-02T13:35:05;13.70;;;2.50;;
23636;SDS011;11995;50.842;4.456;2022-11-02T13:37:40;14.05;;;1.87;;
23636;SDS011;11995;50.842;4.456;2022-11-02T13:40:19;13.20;;;1.95;;
23636;SDS011;11995;50.842;4.456;2022-11-02T13:45:34;9.53;;;3.05;;
23636;SDS011;11995;50.842;4.456;2022-11-02T13:48:09;11.22;;;2.27;;
23636;SDS011;11995;50.842;4.456;2022-11-02T13:50:42;16.87;;;2.20;;
23636;SDS011;11995;50.842;4.456;2022-11-02T13:53:15;13.30;;;2.30;;
23636;SDS011;11995;50.842;4.456;2022-11-02T13:55:49;13.50;;;2.60;;
23636;SDS011;11995;50.842;4.456;2022-11-02T13:58:29;16.75;;;3.62;;
23636;SDS011;11995;50.842;4.456;2022-11-02T14:01:01;14.10;;;2.17;;
23636;SDS011;11995;50.842;4.456;2022-11-02T14:06:17;9.83;;;2.02;;
23636;SDS011;11995;50.842;4.456;2022-11-02T14:08:47;15.20;;;2.47;;
23636;SDS011;11995;50.842;4.456;2022-11-02T14:38:09;14.87;;;2.22;;
23636;SDS011;11995;50.842;4.456;2022-11-02T14:44:02;16.85;;;2.37;;
23636;SDS011;11995;50.842;4.456;2022-11-02T14:46:52;10.13;;;2.70;;
23636;SDS011;11995;50.842;4.456;2022-11-02T14:49:45;23.55;;;2.45;;
23636;SDS011;11995;50.842;4.456;2022-11-02T14:52:16;13.08;;;2.15;;
23636;SDS011;11995;50.842;4.456;2022-11-02T14:54:49;11.68;;;2.62;;
23636;SDS011;11995;50.842;4.456;2022-11-02T15:00:15;14.60;;;2.47;;
23636;SDS011;11995;50.842;4.456;2022-11-02T15:02:44;13.98;;;2.33;;
23636;SDS011;11995;50.842;4.456;2022-11-02T15:05:20;13.08;;;2.40;;
23636;SDS011;11995;50.842;4.456;2022-11-02T15:08:05;9.95;;;2.45;;
23636;SDS011;11995;50.842;4.456;2022-11-02T15:10:38;8.95;;;1.55;;
23636;SDS011;11995;50.842;4.456;2022-11-02T15:23:43;10.58;;;2.42;;
23636;SDS011;11995;50.842;4.456;2022-11-02T15:26:13;8.20;;;1.87;;
23636;SDS011;11995;50.842;4.456;2022-11-02T15:28:47;14.58;;;2.33;;
23636;SDS011;11995;50.842;4.456;2022-11-02T15:31:16;17.48;;;2.08;;
23636;SDS011;11995;50.842;4.456;2022-11-02T15:33:52;15.58;;;2.40;;
23636;SDS011;11995;50.842;4.456;2022-11-02T15:36:26;12.25;;;2.47;;
23636;SDS011;11995;50.842;4.456;2022-11-02T15:38:50;19.80;;;2.80;;
23636;SDS011;11995;50.842;4.456;2022-11-02T16:01:17;12.88;;;2.60;;
23636;SDS011;11995;50.842;4.456;2022-11-02T16:03:53;12.78;;;2.37;;
23636;SDS011;11995;50.842;4.456;2022-11-02T16:06:26;10.72;;;2.15;;
23636;SDS011;11995;50.842;4.456;2022-11-02T16:09:28;12.88;;;2.02;;
23636;SDS011;11995;50.842;4.456;2022-11-02T16:12:01;7.95;;;1.90;;
23636;SDS011;11995;50.842;4.456;2022-11-02T16:14:41;11.90;;;3.08;;
23636;SDS011;11995;50.842;4.456;2022-11-02T16:17:19;15.03;;;2.95;;
23636;SDS011;11995;50.842;4.456;2022-11-02T16:19:51;19.65;;;2.55;;
23636;SDS011;11995;50.842;4.456;2022-11-02T16:22:26;15.15;;;2.33;;
23636;SDS011;11995;50.842;4.456;2022-11-02T16:24:54;13.22;;;2.02;;
23636;SDS011;11995;50.842;4.456;2022-11-02T16:27:21;17.82;;;2.92;;
23636;SDS011;11995;50.842;4.456;2022-11-02T16:29:49;17.55;;;2.37;;
23636;SDS011;11995;50.842;4.456;2022-11-02T16:32:17;13.50;;;2.50;;
23636;SDS011;11995;50.842;4.456;2022-11-02T16:34:45;11.53;;;2.52;;
23636;SDS011;11995;50.842;4.456;2022-11-02T16:37:12;14.80;;;2.65;;
23636;SDS011;11995;50.842;4.456;2022-11-02T16:39:48;10.48;;;2.60;;
23636;SDS011;11995;50.842;4.456;2022-11-02T16:42:14;14.33;;;2.50;;
23636;SDS011;11995;50.842;4.456;2022-11-02T16:44:52;15.03;;;3.10;;
23636;SDS011;11995;50.842;4.456;2022-11-02T16:47:34;17.07;;;2.92;;
23636;SDS011;11995;50.842;4.456;2022-11-02T16:50:22;16.80;;;2.35;;
23636;SDS011;11995;50.842;4.456;2022-11-02T16:52:56;14.18;;;2.42;;
23636;SDS011;11995;50.842;4.456;2022-11-02T16:58:12;15.90;;;2.45;;
23636;SDS011;11995;50.842;4.456;2022-11-02T17:00:39;16.37;;;2.98;;
23636;SDS011;11995;50.842;4.456;2022-11-02T17:03:09;19.20;;;2.75;;
23636;SDS011;11995;50.842;4.456;2022-11-02T17:05:38;13.13;;;2.83;;
23636;SDS011;11995;50.842;4.456;2022-11-02T17:08:17;13.28;;;3.00;;
23636;SDS011;11995;50.842;4.456;2022-11-02T17:10:47;14.03;;;2.95;;
23636;SDS011;11995;50.842;4.456;2022-11-02T17:13:17;15.95;;;3.33;;
23636;SDS011;11995;50.842;4.456;2022-11-02T17:15:50;18.07;;;3.20;;
23636;SDS011;11995;50.842;4.456;2022-11-02T17:21:14;17.90;;;3.30;;
23636;SDS011;11995;50.842;4.456;2022-11-02T17:23:35;8.43;;;2.45;;
23636;SDS011;11995;50.842;4.456;2022-11-02T17:28:53;14.40;;;3.05;;
23636;SDS011;11995;50.842;4.456;2022-11-02T17:31:22;17.23;;;3.08;;